Time,TemperatureF,DewpointF,PressureIn,WindDirection,WindDirectionDegrees,WindSpeedMPH,WindSpeedGustMPH,Humidity,HourlyPrecipIn,Conditions,Clouds,dailyrainin,SoftwareType,DateUTC
2013-05-13 01:00:00,46.0,-99.9,-100.00,East,88,5.0,9.0,-999,0.00,,,-99.99,,2013-05-13 07:00:00,
2013-05-13 01:42:00,46.0,-99.9,-100.00,East,88,5.0,9.0,-999,0.00,,,-99.99,,2013-05-13 07:42:00,
2013-05-13 01:52:00,46.0,-99.9,-100.00,East,88,5.0,9.0,-999,0.00,,,-99.99,,2013-05-13 07:52:00,
2013-05-13 02:00:00,46.0,-99.9,-100.00,East,89,5.0,8.0,-999,0.00,,,-99.99,,2013-05-13 08:00:00,
2013-05-13 02:42:00,46.0,-99.9,-100.00,East,89,5.0,8.0,-999,0.00,,,-99.99,,2013-05-13 08:42:00,
2013-05-13 02:52:00,46.0,-99.9,-100.00,East,89,5.0,8.0,-999,0.00,,,-99.99,,2013-05-13 08:52:00,
2013-05-13 03:00:00,45.0,-99.9,-100.00,East,80,6.0,9.0,-999,0.00,,,-99.99,,2013-05-13 09:00:00,
2013-05-13 03:42:00,45.0,-99.9,-100.00,East,80,6.0,9.0,-999,0.00,,,-99.99,,2013-05-13 09:42:00,
2013-05-13 03:52:00,45.0,-99.9,-100.00,East,80,6.0,9.0,-999,0.00,,,-99.99,,2013-05-13 09:52:00,
2013-05-13 04:00:00,44.0,-99.9,-100.00,East,84,5.0,9.0,-999,0.00,,,-99.99,,2013-05-13 10:00:00,
2013-05-13 04:43:00,44.0,-99.9,-100.00,East,84,5.0,9.0,-999,0.00,,,-99.99,,2013-05-13 10:43:00,
2013-05-13 04:53:00,44.0,-99.9,-100.00,East,84,5.0,9.0,-999,0.00,,,-99.99,,2013-05-13 10:53:00,
2013-05-13 05:00:00,45.0,-99.9,-100.00,East,88,5.0,8.0,-999,0.00,,,-99.99,,2013-05-13 11:00:00,
2013-05-13 05:42:00,45.0,-99.9,-100.00,East,88,5.0,8.0,-999,0.00,,,-99.99,,2013-05-13 11:42:00,
2013-05-13 05:52:00,45.0,-99.9,-100.00,East,88,5.0,8.0,-999,0.00,,,-99.99,,2013-05-13 11:52:00,
2013-05-13 06:00:00,44.0,-99.9,-100.00,East,83,5.0,8.0,-999,0.00,,,-99.99,,2013-05-13 12:00:00,
2013-05-13 06:42:00,44.0,-99.9,-100.00,East,83,5.0,8.0,-999,0.00,,,-99.99,,2013-05-13 12:42:00,
2013-05-13 06:52:00,44.0,-99.9,-100.00,East,83,5.0,8.0,-999,0.00,,,-99.99,,2013-05-13 12:52:00,
2013-05-13 07:00:00,45.0,-99.9,-100.00,East,87,5.0,7.0,-999,0.00,,,-99.99,,2013-05-13 13:00:00,
2013-05-13 07:42:00,45.0,-99.9,-100.00,East,87,5.0,7.0,-999,0.00,,,-99.99,,2013-05-13 13:42:00,
2013-05-13 07:52:00,45.0,-99.9,-100.00,East,87,5.0,7.0,-999,0.00,,,-99.99,,2013-05-13 13:52:00,
2013-05-13 08:00:00,47.0,-99.9,-100.00,East,91,5.0,8.0,-999,0.00,,,-99.99,,2013-05-13 14:00:00,
2013-05-13 08:42:00,47.0,-99.9,-100.00,East,91,5.0,8.0,-999,0.00,,,-99.99,,2013-05-13 14:42:00,
2013-05-13 08:52:00,47.0,-99.9,-100.00,East,91,5.0,8.0,-999,0.00,,,-99.99,,2013-05-13 14:52:00,
2013-05-13 09:00:00,53.0,-99.9,-100.00,ESE,107,4.0,9.0,-999,0.00,,,-99.99,,2013-05-13 15:00:00,
2013-05-13 09:42:00,53.0,-99.9,-100.00,ESE,107,4.0,9.0,-999,0.00,,,-99.99,,2013-05-13 15:42:00,
2013-05-13 09:53:00,53.0,-99.9,-100.00,ESE,107,4.0,9.0,-999,0.00,,,-99.99,,2013-05-13 15:53:00,
2013-05-13 10:00:00,60.0,-99.9,-100.00,SE,129,4.0,9.0,-999,0.00,,,-99.99,,2013-05-13 16:00:00,
2013-05-13 10:34:00,60.0,-99.9,-100.00,SE,129,4.0,9.0,-999,0.00,,,-99.99,,2013-05-13 16:34:00,
2013-05-13 10:43:00,60.0,-99.9,-100.00,SE,129,4.0,9.0,-999,0.00,,,-99.99,,2013-05-13 16:43:00,
2013-05-13 10:53:00,60.0,-99.9,-100.00,SE,129,4.0,9.0,-999,0.00,,,-99.99,,2013-05-13 16:53:00,
2013-05-13 11:00:00,66.0,-99.9,-100.00,SSE,150,4.0,8.0,-999,0.00,,,-99.99,,2013-05-13 17:00:00,
2013-05-13 11:42:00,66.0,-99.9,-100.00,SSE,150,4.0,8.0,-999,0.00,,,-99.99,,2013-05-13 17:42:00,
2013-05-13 11:54:00,66.0,-99.9,-100.00,SSE,150,4.0,8.0,-999,0.00,,,-99.99,,2013-05-13 17:54:00,
2013-05-13 13:00:00,66.0,-99.9,-100.00,SW,225,3.0,9.0,-999,0.00,,,-99.99,,2013-05-13 19:00:00,
2013-05-13 13:44:00,66.0,-99.9,-100.00,SW,225,3.0,9.0,-999,0.00,,,-99.99,,2013-05-13 19:44:00,
2013-05-13 13:53:00,66.0,-99.9,-100.00,SW,225,3.0,9.0,-999,0.00,,,-99.99,,2013-05-13 19:53:00,
2013-05-13 14:00:00,66.0,-99.9,-100.00,SSW,197,3.0,9.0,-999,0.00,,,-99.99,,2013-05-13 20:00:00,
2013-05-13 14:44:00,66.0,-99.9,-100.00,SSW,197,3.0,9.0,-999,0.00,,,-99.99,,2013-05-13 20:44:00,
2013-05-13 14:53:00,66.0,-99.9,-100.00,SSW,197,3.0,9.0,-999,0.00,,,-99.99,,2013-05-13 20:53:00,
2013-05-13 15:00:00,66.0,-99.9,-100.00,South,176,5.0,9.0,-999,0.00,,,-99.99,,2013-05-13 21:00:00,
2013-05-13 15:44:00,66.0,-99.9,-100.00,South,176,5.0,9.0,-999,0.00,,,-99.99,,2013-05-13 21:44:00,
2013-05-13 15:53:00,66.0,-99.9,-100.00,South,176,5.0,9.0,-999,0.00,,,-99.99,,2013-05-13 21:53:00,
2013-05-13 16:00:00,66.0,-99.9,-100.00,South,173,5.0,13.0,-999,0.00,,,-99.99,,2013-05-13 22:00:00,
2013-05-13 16:43:00,66.0,-99.9,-100.00,South,173,5.0,13.0,-999,0.00,,,-99.99,,2013-05-13 22:43:00,
2013-05-13 16:52:00,66.0,-99.9,-100.00,South,173,5.0,13.0,-999,0.00,,,-99.99,,2013-05-13 22:52:00,
2013-05-13 17:00:00,66.0,-99.9,-100.00,South,175,5.0,12.0,-999,0.00,,,-99.99,,2013-05-13 23:00:00,
2013-05-13 17:42:00,66.0,-99.9,-100.00,South,175,5.0,12.0,-999,0.00,,,-99.99,,2013-05-13 23:42:00,
2013-05-13 17:54:00,66.0,-99.9,-100.00,South,175,5.0,12.0,-999,0.00,,,-99.99,,2013-05-13 23:54:00,
2013-05-13 19:00:00,60.0,-99.9,-100.00,South,171,5.0,11.0,-999,0.00,,,-99.99,,2013-05-14 01:00:00,
2013-05-13 19:43:00,60.0,-99.9,-100.00,South,171,5.0,11.0,-999,0.00,,,-99.99,,2013-05-14 01:43:00,
2013-05-13 19:53:00,60.0,-99.9,-100.00,South,171,5.0,11.0,-999,0.00,,,-99.99,,2013-05-14 01:53:00,
2013-05-13 20:42:00,52.0,-99.9,-100.00,ESE,121,3.0,7.0,-999,0.00,,,-99.99,,2013-05-14 02:42:00,
2013-05-13 20:52:00,52.0,-99.9,-100.00,ESE,121,3.0,7.0,-999,0.00,,,-99.99,,2013-05-14 02:52:00,
2013-05-13 21:43:00,48.0,-99.9,-100.00,East,98,3.0,6.0,-999,0.00,,,-99.99,,2013-05-14 03:43:00,
2013-05-13 21:53:00,48.0,-99.9,-100.00,East,98,3.0,6.0,-999,0.00,,,-99.99,,2013-05-14 03:53:00,
2013-05-13 22:33:00,47.0,-99.9,-100.00,ESE,104,2.0,10.0,-999,0.00,,,-99.99,,2013-05-14 04:33:00,
2013-05-13 23:42:00,49.0,-99.9,-100.00,East,92,3.0,10.0,-999,0.00,,,-99.99,,2013-05-14 05:42:00,